createdAt,value
2023-02-16T00:02:17.189Z,102136.09
2023-02-16T00:04:43.814Z,102134.41
2023-02-16T00:07:19.579Z,102136.97
2023-02-16T00:09:46.161Z,102133.47
2023-02-16T00:12:40.090Z,102137.84
2023-02-16T00:15:21.430Z,102136.88
2023-02-16T00:17:48.831Z,102140.25
2023-02-16T00:20:17.147Z,102135.22
2023-02-16T00:22:48.051Z,102132.81
2023-02-16T00:25:14.753Z,102131.06
2023-02-16T00:27:41.926Z,102127.56
2023-02-16T00:30:19.898Z,102135.44
2023-02-16T00:32:46.565Z,102128.69
2023-02-16T00:35:20.877Z,102134.75
2023-02-16T00:37:48.796Z,102139.13
2023-02-16T00:40:16.300Z,102139.16
2023-02-16T00:42:51.121Z,102127.03
2023-02-16T00:45:20.484Z,102140.94
2023-02-16T00:47:49.839Z,102131.41
2023-02-16T00:50:19.703Z,102135.03
2023-02-16T00:52:47.526Z,102132.63
2023-02-16T00:55:19.333Z,102138.66
2023-02-16T00:57:53.410Z,102142.03
2023-02-16T01:00:39.674Z,102138.59
2023-02-16T01:03:10.208Z,102137.78
2023-02-16T01:05:39.612Z,102129.28
2023-02-16T01:08:36.103Z,102125.94
2023-02-16T01:11:10.041Z,102126.94
2023-02-16T01:13:44.869Z,102129.50
2023-02-16T01:16:21.415Z,102127.69
2023-02-16T01:18:48.644Z,102129.47
2023-02-16T01:21:15.339Z,102133.91
2023-02-16T01:23:42.171Z,102130.56
2023-02-16T01:26:17.107Z,102127.94
2023-02-16T01:28:44.477Z,102129.06
2023-02-16T01:31:12.446Z,102132.66
2023-02-16T01:33:39.639Z,102129.91
2023-02-16T01:36:21.851Z,102124.75
2023-02-16T01:38:48.526Z,102123.00
2023-02-16T01:41:38.182Z,102122.06
2023-02-16T01:44:12.815Z,102122.88
2023-02-16T01:46:51.089Z,102106.59
2023-02-16T01:49:25.972Z,102105.75
2023-02-16T01:52:23.861Z,102116.84
2023-02-16T01:54:59.143Z,102110.03
2023-02-16T01:57:34.982Z,102107.41
2023-02-16T02:00:09.610Z,102110.00
2023-02-16T02:02:39.962Z,102108.38
2023-02-16T02:05:38.482Z,102099.91
2023-02-16T02:08:36.302Z,102100.06
2023-02-16T02:11:20.288Z,102098.28
2023-02-16T02:14:07.326Z,102102.72
2023-02-16T02:16:36.728Z,102105.22
2023-02-16T02:19:03.562Z,102100.78
2023-02-16T02:22:26.735Z,102098.16
2023-02-16T02:25:20.126Z,102097.28
2023-02-16T02:28:14.503Z,102100.78
2023-02-16T02:31:02.823Z,102089.56
2023-02-16T02:33:57.302Z,102096.34
2023-02-16T02:36:32.154Z,102086.78
2023-02-16T02:39:35.866Z,102086.84
2023-02-16T02:42:38.520Z,102091.81
2023-02-16T02:45:20.129Z,102084.84
2023-02-16T02:47:50.969Z,102080.53
2023-02-16T02:50:41.766Z,102083.09
2023-02-16T02:53:13.975Z,102083.09
2023-02-16T02:56:19.364Z,102080.47
2023-02-16T02:59:08.946Z,102080.41
2023-02-16T03:01:38.094Z,102084.66
2023-02-16T03:04:09.020Z,102087.13
2023-02-16T03:06:44.135Z,102071.63
2023-02-16T03:09:23.442Z,102073.50
2023-02-16T03:12:11.585Z,102077.72
2023-02-16T03:14:44.750Z,102081.78
2023-02-16T03:17:33.967Z,102087.75
2023-02-16T03:20:22.696Z,102078.22
2023-02-16T03:23:08.888Z,102079.97
2023-02-16T03:25:58.098Z,102078.97
2023-02-16T03:28:49.953Z,102077.16
2023-02-16T03:31:22.163Z,102078.09
2023-02-16T03:33:55.002Z,102086.56
2023-02-16T03:36:24.692Z,102085.69
2023-02-16T03:38:52.319Z,102082.22
2023-02-16T03:41:18.949Z,102084.81
2023-02-16T03:43:45.657Z,102083.81
2023-02-16T03:46:14.751Z,102072.50
2023-02-16T03:48:41.571Z,102082.72
2023-02-16T03:51:08.154Z,102076.69
2023-02-16T03:53:34.775Z,102077.44
2023-02-16T03:56:04.270Z,102072.25
2023-02-16T03:58:30.929Z,102079.09
2023-02-16T04:00:59.063Z,102074.00
2023-02-16T04:03:26.677Z,102076.63
2023-02-16T04:05:53.702Z,102074.06
2023-02-16T04:08:32.520Z,102068.06
2023-02-16T04:11:03.217Z,102075.00
2023-02-16T04:13:30.011Z,102073.19
2023-02-16T04:15:59.523Z,102077.44
2023-02-16T04:18:26.591Z,102081.84
2023-02-16T04:20:54.089Z,102073.53
2023-02-16T04:23:20.698Z,102078.78
2023-02-16T04:25:47.424Z,102071.25
2023-02-16T04:28:14.010Z,102072.13
2023-02-16T04:30:40.967Z,102067.03
2023-02-16T04:33:07.739Z,102063.69
2023-02-16T04:35:34.407Z,102063.75
2023-02-16T04:38:01.001Z,102063.84
2023-02-16T04:40:27.694Z,102068.41
2023-02-16T04:42:56.659Z,102065.66
2023-02-16T04:45:25.072Z,102069.75
2023-02-16T04:47:52.147Z,102062.97
2023-02-16T04:50:20.805Z,102060.63
2023-02-16T04:52:47.446Z,102052.78
2023-02-16T04:55:14.231Z,102054.91
2023-02-16T04:57:40.893Z,102060.09
2023-02-16T05:00:10.016Z,102055.84
2023-02-16T05:02:41.536Z,102053.25
2023-02-16T05:05:10.988Z,102053.41
2023-02-16T05:07:37.899Z,102049.22
2023-02-16T05:10:06.008Z,102053.53
2023-02-16T05:12:50.978Z,102054.28
2023-02-16T05:15:20.451Z,102055.00
2023-02-16T05:17:50.037Z,102044.47
2023-02-16T05:20:16.783Z,102054.91
2023-02-16T05:22:45.733Z,102052.13
2023-02-16T05:25:12.389Z,102058.22
2023-02-16T05:27:39.539Z,102069.41
2023-02-16T05:30:09.624Z,102074.63
2023-02-16T05:32:36.270Z,102077.94
2023-02-16T05:35:06.694Z,102078.69
2023-02-16T05:37:33.440Z,102086.31
2023-02-16T05:40:02.991Z,102078.34
2023-02-16T05:42:29.627Z,102077.47
2023-02-16T05:44:59.243Z,102072.25
2023-02-16T05:47:26.033Z,102071.38
2023-02-16T05:49:52.625Z,102069.41
2023-02-16T05:52:19.286Z,102067.66
2023-02-16T05:54:48.906Z,102068.59
2023-02-16T05:57:15.640Z,102058.53
2023-02-16T05:59:42.345Z,102054.25
2023-02-16T06:02:09.993Z,102057.84
2023-02-16T06:04:38.847Z,102061.09
2023-02-16T06:07:11.212Z,102075.38
2023-02-16T06:09:39.134Z,102069.41
2023-02-16T06:12:12.303Z,102080.50
2023-02-16T06:14:38.937Z,102085.59
2023-02-16T06:17:06.705Z,102095.75
2023-02-16T06:19:33.338Z,102090.50
2023-02-16T06:22:00.236Z,102097.34
2023-02-16T06:24:26.971Z,102097.41
2023-02-16T06:26:53.628Z,102089.94
2023-02-16T06:29:20.848Z,102083.03
2023-02-16T06:31:47.526Z,102082.94
2023-02-16T06:34:14.421Z,102092.38
2023-02-16T06:36:50.352Z,102093.94
2023-02-16T06:39:17.618Z,102094.69
2023-02-16T06:41:44.256Z,102099.78
2023-02-16T06:44:19.960Z,102102.41
2023-02-16T06:46:47.712Z,102104.06
2023-02-16T06:49:20.716Z,102105.72
2023-02-16T06:51:49.240Z,102098.03
2023-02-16T06:54:16.806Z,102095.38
2023-02-16T06:56:43.459Z,102090.38
2023-02-16T06:59:14.446Z,102098.31
2023-02-16T07:01:44.138Z,102096.06
2023-02-16T07:04:12.070Z,102092.09
2023-02-16T07:06:38.750Z,102086.53
2023-02-16T07:09:05.451Z,102089.59
2023-02-16T07:11:32.067Z,102096.06
2023-02-16T07:13:58.750Z,102099.56
2023-02-16T07:16:25.479Z,102092.72
2023-02-16T07:18:54.784Z,102097.09
2023-02-16T07:21:21.373Z,102099.78
2023-02-16T07:23:48.109Z,102103.41
2023-02-16T07:26:14.782Z,102108.69
2023-02-16T07:28:41.426Z,102102.94
2023-02-16T07:31:13.949Z,102105.91
2023-02-16T07:33:40.726Z,102108.03
2023-02-16T07:36:08.947Z,102099.84
2023-02-16T07:38:39.069Z,102097.63
2023-02-16T07:41:08.793Z,102094.53
2023-02-16T07:43:37.842Z,102086.38
2023-02-16T07:46:05.679Z,102089.63
2023-02-16T07:48:36.584Z,102091.97
2023-02-16T07:51:03.781Z,102088.25
2023-02-16T07:53:30.825Z,102094.03
2023-02-16T07:55:57.897Z,102097.75
2023-02-16T07:58:36.912Z,102087.91
2023-02-16T08:01:13.043Z,102094.50
2023-02-16T08:03:41.258Z,102093.75
2023-02-16T08:06:11.326Z,102093.16
2023-02-16T08:08:38.242Z,102090.63
2023-02-16T08:11:13.079Z,102095.16
2023-02-16T08:13:43.498Z,102098.03
2023-02-16T08:16:21.138Z,102087.22
2023-02-16T08:18:54.478Z,102084.09
2023-02-16T08:21:23.731Z,102097.78
2023-02-16T08:24:01.802Z,102097.78
2023-02-16T08:26:35.018Z,102098.25
2023-02-16T08:29:10.300Z,102086.63
2023-02-16T08:31:41.190Z,102092.75
2023-02-16T08:34:11.218Z,102090.66
2023-02-16T08:36:38.695Z,102097.00
2023-02-16T08:39:09.006Z,102093.03
2023-02-16T08:41:37.659Z,102101.09
2023-02-16T08:44:06.801Z,102101.09
2023-02-16T08:46:34.908Z,102095.56
2023-02-16T08:49:02.057Z,102098.69
2023-02-16T08:51:34.718Z,102093.94
2023-02-16T08:54:05.563Z,102085.06
2023-02-16T08:56:33.193Z,102089.38
2023-02-16T08:59:00.210Z,102091.16
2023-02-16T09:01:26.998Z,102085.97
2023-02-16T09:03:55.948Z,102084.03
2023-02-16T09:06:22.907Z,102080.91
2023-02-16T09:08:56.981Z,102081.59
2023-02-16T09:11:24.101Z,102076.31
2023-02-16T09:13:57.549Z,102079.75
2023-02-16T09:16:34.379Z,102081.56
2023-02-16T09:19:02.234Z,102078.13
2023-02-16T09:21:33.468Z,102075.63
2023-02-16T09:24:07.663Z,102077.41
2023-02-16T09:26:39.032Z,102088.00
2023-02-16T09:29:07.160Z,102076.09
2023-02-16T09:31:37.508Z,102077.13
2023-02-16T09:34:22.721Z,102078.03
2023-02-16T09:36:50.895Z,102068.56
2023-02-16T09:39:18.652Z,102084.16
2023-02-16T09:42:03.993Z,102072.97
2023-02-16T09:44:30.728Z,102071.31
2023-02-16T09:47:10.375Z,102073.91
2023-02-16T09:49:46.898Z,102063.56
2023-02-16T09:52:42.866Z,102074.88
2023-02-16T09:55:22.764Z,102067.03
2023-02-16T09:58:06.257Z,102061.78
2023-02-16T10:00:33.037Z,102062.59
2023-02-16T10:03:28.984Z,102072.22
2023-02-16T10:06:17.246Z,102074.75
2023-02-16T10:08:53.285Z,102061.56
2023-02-16T10:11:46.899Z,102054.50
2023-02-16T10:14:51.163Z,102062.50
2023-02-16T10:17:40.918Z,102052.75
2023-02-16T10:20:29.019Z,102057.81
2023-02-16T10:23:23.259Z,102059.06
2023-02-16T10:26:30.117Z,102062.59
2023-02-16T10:29:07.262Z,102061.69
2023-02-16T10:31:43.566Z,102060.34
2023-02-16T10:34:23.290Z,102064.28
2023-02-16T10:37:05.779Z,102073.09
2023-02-16T10:39:43.220Z,102072.13
2023-02-16T10:42:30.035Z,102064.69
2023-02-16T10:45:27.320Z,102061.47
2023-02-16T10:47:57.383Z,102058.75
2023-02-16T10:51:07.856Z,102054.53
2023-02-16T10:53:47.720Z,102049.28
2023-02-16T10:56:41.510Z,102051.91
2023-02-16T10:59:21.240Z,102051.94
2023-02-16T11:01:52.109Z,102043.22
2023-02-16T11:04:43.715Z,102044.03
2023-02-16T11:07:13.420Z,102034.38
2023-02-16T11:09:42.234Z,102032.59
2023-02-16T11:12:32.650Z,102035.22
2023-02-16T11:15:23.688Z,102034.25
2023-02-16T11:17:57.138Z,102030.69
2023-02-16T11:20:35.689Z,102034.84
2023-02-16T11:23:14.439Z,102034.69
2023-02-16T11:25:44.391Z,102029.34
2023-02-16T11:28:46.971Z,102014.72
2023-02-16T11:31:32.926Z,102031.97
2023-02-16T11:34:27.331Z,102022.91
2023-02-16T11:37:09.252Z,102020.44
2023-02-16T11:39:39.421Z,102026.81
2023-02-16T11:42:47.135Z,102025.25
2023-02-16T11:45:38.667Z,102016.53
2023-02-16T11:48:11.496Z,102005.88
2023-02-16T11:50:59.618Z,102010.81
2023-02-16T11:53:38.161Z,101994.88
2023-02-16T11:56:30.173Z,101998.19
2023-02-16T11:59:21.490Z,101995.38
2023-02-16T12:02:24.446Z,101987.50
2023-02-16T12:05:05.212Z,101985.81
2023-02-16T12:07:50.089Z,101983.16
2023-02-16T12:10:28.824Z,101990.13
2023-02-16T12:13:07.089Z,101984.78
2023-02-16T12:15:51.245Z,101983.59
2023-02-16T12:18:43.458Z,101980.19
2023-02-16T12:21:37.855Z,101968.66
2023-02-16T12:24:19.834Z,101978.09
2023-02-16T12:26:56.200Z,101965.03
2023-02-16T12:29:31.891Z,101963.84
2023-02-16T12:32:30.271Z,101957.75
2023-02-16T12:35:36.045Z,101964.72
2023-02-16T12:38:11.688Z,101958.06
2023-02-16T12:40:47.057Z,101957.13
2023-02-16T12:43:33.897Z,101957.53
2023-02-16T12:46:39.771Z,101952.75
2023-02-16T12:49:49.724Z,101950.28
2023-02-16T12:53:04.358Z,101950.53
2023-02-16T12:55:51.173Z,101942.59
2023-02-16T12:58:24.317Z,101948.53
2023-02-16T13:00:58.815Z,101954.53
2023-02-16T13:03:54.106Z,101954.53
2023-02-16T13:06:37.656Z,101950.50
2023-02-16T13:09:38.256Z,101950.44
2023-02-16T13:12:07.741Z,101947.19
2023-02-16T13:14:40.162Z,101951.13
2023-02-16T13:17:36.144Z,101945.38
2023-02-16T13:20:16.783Z,101937.88
2023-02-16T13:23:18.639Z,101941.13
2023-02-16T13:26:31.507Z,101929.78
2023-02-16T13:29:30.616Z,101933.91
2023-02-16T13:32:41.706Z,101929.50
2023-02-16T13:35:17.284Z,101934.81
2023-02-16T13:38:26.799Z,101923.50
2023-02-16T13:41:24.200Z,101922.63
2023-02-16T13:43:53.857Z,101922.50
2023-02-16T13:46:34.090Z,101904.97
2023-02-16T13:49:02.290Z,101918.00
2023-02-16T13:51:46.341Z,101918.03
2023-02-16T13:54:36.841Z,101915.47
2023-02-16T13:57:04.727Z,101913.63
2023-02-16T13:59:37.533Z,101911.03
2023-02-16T14:02:14.309Z,101904.00
2023-02-16T14:04:40.917Z,101916.28
2023-02-16T14:07:07.662Z,101921.63
2023-02-16T14:09:51.301Z,101932.91
2023-02-16T14:12:20.061Z,101919.63
2023-02-16T14:14:58.488Z,101917.91
2023-02-16T14:17:29.805Z,101918.00
2023-02-16T14:20:18.927Z,101923.47
2023-02-16T14:22:45.493Z,101920.06
2023-02-16T14:25:24.268Z,101924.53
2023-02-16T14:28:01.452Z,101916.75
2023-02-16T14:30:56.368Z,101919.41
2023-02-16T14:33:46.635Z,101922.97
2023-02-16T14:36:21.730Z,101919.53
2023-02-16T14:38:50.950Z,101919.50
2023-02-16T14:41:26.153Z,101918.56
2023-02-16T14:44:04.993Z,101909.84
2023-02-16T14:46:46.488Z,101912.53
2023-02-16T14:49:40.818Z,101913.50
2023-02-16T14:52:22.514Z,101912.69
2023-02-16T14:55:16.367Z,101910.16
2023-02-16T14:58:04.577Z,101909.38
2023-02-16T15:00:40.647Z,101910.25
2023-02-16T15:03:23.134Z,101912.94
2023-02-16T15:06:00.091Z,101900.84
2023-02-16T15:08:49.972Z,101900.09
2023-02-16T15:11:28.640Z,101915.03
2023-02-16T15:13:58.601Z,101907.19
2023-02-16T15:16:28.379Z,101901.13
2023-02-16T15:19:00.377Z,101904.59
2023-02-16T15:21:28.595Z,101898.63
2023-02-16T15:24:00.650Z,101902.13
2023-02-16T15:26:33.556Z,101888.97
2023-02-16T15:29:05.500Z,101901.19
2023-02-16T15:31:34.780Z,101903.81
2023-02-16T15:34:07.559Z,101899.50
2023-02-16T15:36:40.802Z,101896.09
2023-02-16T15:39:41.318Z,101897.94
2023-02-16T15:42:15.134Z,101897.19
2023-02-16T15:44:43.679Z,101899.00
2023-02-16T15:47:25.008Z,101890.38
2023-02-16T15:49:54.072Z,101900.91
2023-02-16T15:52:35.864Z,101895.78
2023-02-16T15:55:06.447Z,101888.88
2023-02-16T15:57:38.137Z,101879.28
2023-02-16T16:00:15.879Z,101882.91
2023-02-16T16:02:47.620Z,101883.06
2023-02-16T16:05:39.154Z,101881.47
2023-02-16T16:08:17.115Z,101884.28
2023-02-16T16:10:46.569Z,101887.03
2023-02-16T16:13:20.778Z,101891.44
2023-02-16T16:15:53.674Z,101888.88
2023-02-16T16:18:39.377Z,101877.59
2023-02-16T16:21:19.716Z,101874.16
2023-02-16T16:24:04.942Z,101868.97
2023-02-16T16:26:57.860Z,101875.13
2023-02-16T16:29:47.759Z,101868.19
2023-02-16T16:32:18.305Z,101869.94
2023-02-16T16:34:45.502Z,101864.78
2023-02-16T16:37:29.433Z,101868.19
2023-02-16T16:40:05.159Z,101872.63
2023-02-16T16:42:39.397Z,101870.09
2023-02-16T16:45:25.446Z,101867.50
2023-02-16T16:47:52.520Z,101864.91
2023-02-16T16:50:33.171Z,101866.69
2023-02-16T16:53:09.387Z,101860.63
2023-02-16T16:55:36.174Z,101865.03
2023-02-16T16:58:10.446Z,101858.94
2023-02-16T17:00:40.346Z,101856.38
2023-02-16T17:03:09.511Z,101861.66
2023-02-16T17:05:40.128Z,101851.25
2023-02-16T17:08:09.451Z,101848.66
2023-02-16T17:10:46.598Z,101848.66
2023-02-16T17:13:20.150Z,101848.66
2023-02-16T17:15:57.425Z,101851.25
2023-02-16T17:18:24.117Z,101840.81
2023-02-16T17:20:51.785Z,101853.88
2023-02-16T17:23:20.830Z,101853.06
2023-02-16T17:25:50.673Z,101855.63
2023-02-16T17:28:19.180Z,101851.25
2023-02-16T17:30:45.917Z,101844.28
2023-02-16T17:33:12.805Z,101852.13
2023-02-16T17:35:42.041Z,101847.78
2023-02-16T17:38:11.421Z,101849.50
2023-02-16T17:40:39.433Z,101849.50
2023-02-16T17:43:14.247Z,101844.31
2023-02-16T17:45:41.809Z,101847.78
2023-02-16T17:48:08.492Z,101849.53
2023-02-16T17:50:35.165Z,101850.41
2023-02-16T17:53:09.592Z,101854.78
2023-02-16T17:55:36.234Z,101857.41
2023-02-16T17:58:02.856Z,101854.75
2023-02-16T18:00:29.637Z,101846.03
2023-02-16T18:02:59.222Z,101858.22
2023-02-16T18:05:28.839Z,101856.47
2023-02-16T18:07:59.743Z,101860.81
2023-02-16T18:10:38.269Z,101861.69
2023-02-16T18:13:06.418Z,101867.78
2023-02-16T18:15:33.673Z,101862.56
2023-02-16T18:18:00.408Z,101855.63
2023-02-16T18:20:27.570Z,101873.88
2023-02-16T18:22:54.268Z,101866.06
2023-02-16T18:25:21.009Z,101865.19
2023-02-16T18:27:47.677Z,101860.00
2023-02-16T18:30:19.343Z,101860.84
2023-02-16T18:32:49.155Z,101859.97
2023-02-16T18:35:21.937Z,101855.63
2023-02-16T18:37:51.766Z,101857.38
2023-02-16T18:40:20.206Z,101856.50
2023-02-16T18:42:49.451Z,101859.09
2023-02-16T18:45:16.617Z,101853.91
2023-02-16T18:47:46.359Z,101860.88
2023-02-16T18:50:13.104Z,101858.28
2023-02-16T18:52:42.584Z,101861.72
2023-02-16T18:55:10.294Z,101857.34
2023-02-16T18:57:37.014Z,101853.88
2023-02-16T19:00:06.351Z,101852.13
2023-02-16T19:02:33.240Z,101857.34
2023-02-16T19:05:02.569Z,101856.47
2023-02-16T19:07:29.186Z,101857.34
2023-02-16T19:09:55.864Z,101855.63
2023-02-16T19:12:22.593Z,101847.78
2023-02-16T19:14:51.802Z,101848.66
2023-02-16T19:17:18.866Z,101845.16
2023-02-16T19:19:46.312Z,101845.97
2023-02-16T19:22:12.956Z,101842.50
2023-02-16T19:24:39.641Z,101846.84
2023-02-16T19:27:09.021Z,101845.97
2023-02-16T19:29:35.676Z,101845.09
2023-02-16T19:32:10.832Z,101838.13
2023-02-16T19:34:37.536Z,101837.25
2023-02-16T19:37:04.200Z,101852.06
2023-02-16T19:39:33.981Z,101852.06
2023-02-16T19:42:00.766Z,101847.69
2023-02-16T19:44:27.431Z,101852.94
2023-02-16T19:46:57.648Z,101848.59
2023-02-16T19:49:24.236Z,101850.31
2023-02-16T19:51:51.595Z,101853.81
2023-02-16T19:54:18.252Z,101852.06
2023-02-16T19:56:44.972Z,101849.47
2023-02-16T19:59:11.868Z,101852.09
2023-02-16T20:01:44.544Z,101846.03
2023-02-16T20:04:12.925Z,101842.50
2023-02-16T20:06:41.921Z,101838.19
2023-02-16T20:09:12.446Z,101829.50
2023-02-16T20:11:40.155Z,101830.38
2023-02-16T20:14:06.916Z,101837.34
2023-02-16T20:16:33.561Z,101838.22
2023-02-16T20:19:00.511Z,101839.13
2023-02-16T20:21:29.147Z,101846.09
2023-02-16T20:24:00.523Z,101849.59
2023-02-16T20:26:39.224Z,101846.09
2023-02-16T20:29:07.983Z,101846.16
2023-02-16T20:31:46.935Z,101847.03
2023-02-16T20:34:16.686Z,101837.47
2023-02-16T20:36:46.878Z,101836.59
2023-02-16T20:39:13.757Z,101827.03
2023-02-16T20:41:41.494Z,101827.03
2023-02-16T20:44:11.734Z,101818.38
2023-02-16T20:46:39.374Z,101814.03
2023-02-16T20:49:09.757Z,101826.22
2023-02-16T20:51:37.306Z,101824.47
2023-02-16T20:54:10.998Z,101822.72
2023-02-16T20:56:37.710Z,101826.22
2023-02-16T20:59:04.933Z,101823.59
2023-02-16T21:01:47.213Z,101828.81
2023-02-16T21:04:16.822Z,101831.44
2023-02-16T21:06:46.504Z,101827.09
2023-02-16T21:09:14.303Z,101828.81
2023-02-16T21:11:41.748Z,101822.72
2023-02-16T21:14:10.495Z,101825.38
2023-02-16T21:16:37.726Z,101818.44
2023-02-16T21:19:11.730Z,101813.25
2023-02-16T21:21:43.904Z,101828.03
2023-02-16T21:24:10.613Z,101812.41
2023-02-16T21:26:37.289Z,101812.41
2023-02-16T21:29:04.202Z,101810.69
2023-02-16T21:31:36.543Z,101802.91
2023-02-16T21:34:03.287Z,101803.72
2023-02-16T21:36:30.054Z,101806.34
2023-02-16T21:38:56.723Z,101793.31
2023-02-16T21:41:26.680Z,101799.41
2023-02-16T21:44:02.182Z,101795.06
2023-02-16T21:46:34.540Z,101793.34
2023-02-16T21:49:01.516Z,101787.25
2023-02-16T21:51:33.637Z,101793.34
2023-02-16T21:54:00.715Z,101784.66
2023-02-16T21:56:31.369Z,101788.09
2023-02-16T21:58:58.465Z,101767.25
2023-02-16T22:01:31.205Z,101780.28
2023-02-16T22:04:00.847Z,101765.50
2023-02-16T22:06:32.392Z,101772.44
2023-02-16T22:09:03.438Z,101761.16
2023-02-16T22:11:30.125Z,101766.38
2023-02-16T22:14:02.584Z,101761.16
2023-02-16T22:16:40.300Z,101765.50
2023-02-16T22:19:11.042Z,101760.28
2023-02-16T22:21:41.879Z,101757.69
2023-02-16T22:24:14.140Z,101756.78
2023-02-16T22:26:43.765Z,101760.25
2023-02-16T22:29:11.374Z,101755.03
2023-02-16T22:31:38.871Z,101748.94
2023-02-16T22:34:08.388Z,101754.16
2023-02-16T22:36:37.576Z,101752.44
2023-02-16T22:39:08.769Z,101742.88
2023-02-16T22:41:38.299Z,101745.47
2023-02-16T22:44:05.838Z,101747.22
2023-02-16T22:46:32.688Z,101746.34
2023-02-16T22:48:59.391Z,101742.00
2023-02-16T22:51:29.349Z,101737.66
2023-02-16T22:53:59.548Z,101742.00
2023-02-16T22:56:27.102Z,101743.72
2023-02-16T22:58:56.474Z,101743.72
2023-02-16T23:01:32.053Z,101741.13
2023-02-16T23:04:00.607Z,101732.44
2023-02-16T23:06:28.839Z,101737.66
2023-02-16T23:09:03.226Z,101735.06
2023-02-16T23:11:30.581Z,101733.34
2023-02-16T23:13:57.389Z,101736.81
2023-02-16T23:16:34.010Z,101732.47
2023-02-16T23:19:01.192Z,101732.50
2023-02-16T23:21:35.504Z,101717.75
2023-02-16T23:24:05.374Z,101718.63
2023-02-16T23:26:35.037Z,101716.03
2023-02-16T23:29:07.270Z,101721.25
2023-02-16T23:31:36.197Z,101715.16
2023-02-16T23:34:06.916Z,101715.16
2023-02-16T23:36:36.791Z,101710.81
2023-02-16T23:39:08.305Z,101718.63
2023-02-16T23:41:37.678Z,101709.94
2023-02-16T23:44:05.246Z,101710.81
2023-02-16T23:46:32.010Z,101709.94
2023-02-16T23:48:58.979Z,101704.75
2023-02-16T23:51:26.496Z,101711.69
2023-02-16T23:53:57.713Z,101703.03
2023-02-16T23:56:26.733Z,101709.09
2023-02-16T23:59:00.886Z,101706.47
